Time;durP1;ratioP1;P1;durP2;ratioP2;P2;SDS_P1;SDS_P2;PMS_P1;PMS_P2;Temp;Humidity;BMP_temperature;BMP_pressure;BME280_temperature;BME280_humidity;BME280_pressure;Samples;Min_cycle;Max_cycle;Signal;HPM_P1;HPM_P2
2022/06/10 00:00:27;;;;;;;4.85;3.90;;;;;;;11.01;96.88;99045.91;4190221;28;20072;-71
2022/06/10 00:02:27;;;;;;;6.22;3.95;;;;;;;11.00;96.84;99047.84;4188074;28;20056;-71
2022/06/10 00:04:28;;;;;;;5.20;3.92;;;;;;;10.96;96.81;99045.03;4192554;28;20097;-70
2022/06/10 00:06:28;;;;;;;5.20;4.05;;;;;;;10.96;97.11;99047.78;4186886;28;20426;-70
2022/06/10 00:08:32;;;;;;;6.85;4.60;;;;;;;10.89;97.78;99047.66;4189621;28;20041;-71
2022/06/10 00:10:33;;;;;;;5.13;4.13;;;;;;;10.84;97.85;99052.69;4186831;28;20055;-70
2022/06/10 00:12:33;;;;;;;6.65;4.72;;;;;;;10.71;98.19;99054.81;4187085;28;20075;-71
2022/06/10 00:14:34;;;;;;;5.75;4.60;;;;;;;10.62;98.82;99057.81;4186518;28;20040;-70
2022/06/10 00:16:34;;;;;;;5.57;4.68;;;;;;;10.57;99.46;99062.81;4188013;28;20441;-70
2022/06/10 00:18:35;;;;;;;7.35;4.78;;;;;;;10.56;99.03;99062.03;4185630;28;20067;-73
2022/06/10 00:20:36;;;;;;;6.57;4.18;;;;;;;10.55;98.98;99057.66;4186648;28;20263;-72
2022/06/10 00:22:36;;;;;;;6.85;4.78;;;;;;;10.48;99.18;99062.25;4186069;28;20777;-72
2022/06/10 00:24:36;;;;;;;8.05;4.97;;;;;;;10.47;99.02;99068.94;4186598;28;20220;-72
2022/06/10 00:26:37;;;;;;;6.72;4.85;;;;;;;10.39;100.00;99066.00;4186421;28;20036;-72
2022/06/10 00:28:38;;;;;;;4.80;4.28;;;;;;;10.38;99.77;99071.91;4190898;28;20055;-72
2022/06/10 00:30:39;;;;;;;5.15;4.47;;;;;;;10.35;99.62;99061.59;4189716;28;20097;-72
2022/06/10 00:32:39;;;;;;;7.40;4.43;;;;;;;10.30;100.00;99061.88;4186090;28;20048;-72
2022/06/10 00:34:40;;;;;;;7.60;4.32;;;;;;;10.29;100.00;99071.31;4186108;28;20339;-72
2022/06/10 00:36:40;;;;;;;6.70;4.28;;;;;;;10.26;100.00;99066.50;4186102;28;20098;-72
2022/06/10 00:38:41;;;;;;;6.75;4.70;;;;;;;10.25;100.00;99065.69;4191511;27;20516;-72
2022/06/10 00:40:46;;;;;;;5.22;4.70;;;;;;;10.21;100.00;99064.81;4186353;28;20396;-72
2022/06/10 00:42:46;;;;;;;5.97;4.22;;;;;;;10.20;100.00;99065.16;4186277;28;20415;-72
2022/06/10 00:44:52;;;;;;;7.88;4.82;;;;;;;10.22;100.00;99074.72;4186049;28;20049;-72
2022/06/10 00:46:53;;;;;;;5.25;4.72;;;;;;;10.25;100.00;99075.97;4189409;28;20431;-72
2022/06/10 00:48:56;;;;;;;5.47;4.88;;;;;;;10.27;99.79;99076.41;4187495;28;20559;-72
2022/06/10 00:51:03;;;;;;;5.80;4.82;;;;;;;10.21;100.00;99075.06;4185928;28;20116;-72
2022/06/10 00:53:06;;;;;;;5.18;4.35;;;;;;;10.18;100.00;99073.84;4186017;28;20066;-72
2022/06/10 00:55:08;;;;;;;6.47;5.10;;;;;;;10.19;100.00;99074.63;4186389;28;20048;-72
2022/06/10 00:57:19;;;;;;;6.30;4.50;;;;;;;10.17;100.00;99079.69;4185666;28;20128;-72
2022/06/10 00:59:24;;;;;;;5.50;4.38;;;;;;;10.12;100.00;99081.59;4189545;28;20051;-72
2022/06/10 01:01:26;;;;;;;6.53;4.55;;;;;;;10.15;100.00;99080.06;4186199;28;20040;-71
2022/06/10 01:03:27;;;;;;;6.63;4.53;;;;;;;10.14;100.00;99084.00;4186077;28;20440;-72
2022/06/10 01:05:28;;;;;;;6.55;5.20;;;;;;;10.13;100.00;99085.16;4185833;28;20116;-72
2022/06/10 01:07:35;;;;;;;5.15;4.30;;;;;;;10.12;100.00;99083.56;4187346;28;20733;-72
2022/06/10 01:09:37;;;;;;;7.10;5.65;;;;;;;10.22;100.00;99087.72;4185294;28;20040;-72
2022/06/10 01:11:37;;;;;;;5.57;4.53;;;;;;;10.20;100.00;99092.81;4194858;28;20135;-72
2022/06/10 01:14:09;;;;;;;7.45;4.95;;;;;;;10.12;100.00;99094.63;4189266;28;20218;-72
2022/06/10 01:16:35;;;;;;;5.70;4.68;;;;;;;10.09;100.00;99098.91;4193631;27;20039;-72
2022/06/10 01:18:45;;;;;;;7.63;5.03;;;;;;;10.05;100.00;99099.97;4192284;28;20041;-72
2022/06/10 01:20:54;;;;;;;7.82;5.40;;;;;;;10.02;100.00;99097.94;4191525;28;20488;-72
2022/06/10 01:23:24;;;;;;;5.50;5.00;;;;;;;10.00;100.00;99103.81;4191564;28;20040;-72
2022/06/10 01:25:36;;;;;;;6.30;4.80;;;;;;;9.99;100.00;99102.22;4188230;28;20297;-72
2022/06/10 01:27:57;;;;;;;7.40;4.90;;;;;;;10.03;100.00;99107.84;4189752;28;20097;-72
2022/06/10 01:30:13;;;;;;;8.13;5.32;;;;;;;9.99;100.00;99116.03;4192856;28;20041;-72
2022/06/10 01:32:39;;;;;;;6.10;4.60;;;;;;;9.99;100.00;99116.03;4188714;28;20040;-72
2022/06/10 01:35:14;;;;;;;7.78;5.60;;;;;;;9.91;100.00;99113.44;4189016;28;20070;-72
2022/06/10 01:37:28;;;;;;;6.40;5.35;;;;;;;9.86;100.00;99109.03;4194718;27;20308;-72
2022/06/10 01:39:57;;;;;;;6.65;5.15;;;;;;;9.90;100.00;99125.66;4188002;28;20052;-72
2022/06/10 01:42:07;;;;;;;6.43;5.00;;;;;;;9.94;100.00;99116.31;4191385;28;20044;-72
2022/06/10 01:44:30;;;;;;;7.43;5.15;;;;;;;9.92;100.00;99126.13;4188292;28;20562;-72
2022/06/10 01:46:37;;;;;;;10.98;5.40;;;;;;;9.94;100.00;99119.09;4190713;28;20048;-72
2022/06/10 01:48:50;;;;;;;6.78;5.50;;;;;;;9.89;100.00;99121.31;4190699;28;20454;-72
2022/06/10 01:51:07;;;;;;;8.23;5.25;;;;;;;9.85;100.00;99115.72;4194018;27;20488;-72
2022/06/10 01:53:17;;;;;;;7.75;5.45;;;;;;;9.84;100.00;99114.06;4188439;28;20048;-72
2022/06/10 01:55:32;;;;;;;8.02;5.82;;;;;;;9.84;100.00;99120.41;4194554;28;20044;-72
2022/06/10 01:57:43;;;;;;;7.35;5.25;;;;;;;9.85;100.00;99126.75;4188420;28;20048;-71
2022/06/10 01:59:57;;;;;;;8.32;5.55;;;;;;;9.81;100.00;99112.84;4187919;28;20059;-72
2022/06/10 02:02:15;;;;;;;8.70;6.05;;;;;;;9.81;100.00;99121.13;4190512;28;20117;-72
2022/06/10 02:04:24;;;;;;;6.22;5.38;;;;;;;9.79;100.00;99106.06;4192215;28;20204;-72
2022/06/10 02:06:37;;;;;;;6.15;5.40;;;;;;;9.82;100.00;99119.97;4188326;28;20059;-72
2022/06/10 02:08:47;;;;;;;6.90;5.53;;;;;;;9.84;100.00;99125.13;4187327;28;20048;-72
2022/06/10 02:11:17;;;;;;;7.25;5.95;;;;;;;9.83;100.00;99126.28;4194403;27;20068;-72
2022/06/10 02:13:25;;;;;;;6.07;5.47;;;;;;;9.81;100.00;99123.91;4188711;28;20048;-72
2022/06/10 02:15:36;;;;;;;7.25;5.70;;;;;;;9.79;100.00;99123.47;4195092;27;20559;-72
2022/06/10 02:17:41;;;;;;;5.88;5.22;;;;;;;9.82;100.00;99122.72;4188156;28;20048;-72
2022/06/10 02:19:49;;;;;;;6.90;5.68;;;;;;;9.80;100.00;99129.78;4188059;28;20049;-72
2022/06/10 02:21:57;;;;;;;10.30;5.53;;;;;;;9.79;100.00;99134.50;4187619;28;20445;-72
2022/06/10 02:24:06;;;;;;;7.90;5.35;;;;;;;9.75;100.00;99133.59;4187651;28;20045;-72
2022/06/10 02:26:07;;;;;;;7.72;6.10;;;;;;;9.69;100.00;99135.06;4191765;28;20786;-72
2022/06/10 02:28:14;;;;;;;5.95;4.78;;;;;;;9.71;100.00;99146.53;4190021;28;20036;-72
2022/06/10 02:30:25;;;;;;;6.72;5.32;;;;;;;9.75;100.00;99149.38;4194271;28;20297;-72
2022/06/10 02:32:26;;;;;;;7.38;6.00;;;;;;;9.72;100.00;99139.06;4188269;28;20033;-72
2022/06/10 02:34:28;;;;;;;8.32;6.53;;;;;;;9.66;100.00;99146.78;4188340;28;20078;-72
2022/06/10 02:36:46;;;;;;;6.80;6.07;;;;;;;9.67;100.00;99158.66;4187731;28;20072;-72
2022/06/10 02:38:57;;;;;;;7.38;5.55;;;;;;;9.65;100.00;99164.53;4189004;28;20213;-71
2022/06/10 02:41:08;;;;;;;6.88;6.13;;;;;;;9.60;100.00;99152.94;4189857;28;20045;-72
2022/06/10 02:43:27;;;;;;;7.90;5.50;;;;;;;9.64;100.00;99156.59;4187994;28;20477;-72
2022/06/10 02:45:54;;;;;;;7.10;5.35;;;;;;;9.63;100.00;99155.81;4187504;28;20043;-72
2022/06/10 02:48:02;;;;;;;6.57;5.47;;;;;;;9.64;100.00;99159.38;4186387;28;20053;-72
2022/06/10 02:50:03;;;;;;;7.07;5.65;;;;;;;9.63;100.00;99155.00;4186680;28;20119;-72
2022/06/10 02:52:04;;;;;;;6.85;5.70;;;;;;;9.63;100.00;99158.56;4187635;28;20044;-72
2022/06/10 02:54:10;;;;;;;9.65;5.28;;;;;;;9.68;100.00;99157.50;4187687;28;20024;-72
2022/06/10 02:56:21;;;;;;;10.98;6.20;;;;;;;9.63;100.00;99158.56;4187559;28;20470;-72
2022/06/10 03:01:11;;;;;;;7.90;5.85;;;;;;;9.64;100.00;99173.19;4186749;28;20120;-72
2022/06/10 03:03:29;;;;;;;7.47;5.60;;;;;;;9.63;100.00;99177.91;4190621;27;20487;-72
2022/06/10 03:06:09;;;;;;;6.25;5.30;;;;;;;9.61;100.00;99168.38;4188077;28;20028;-72
2022/06/10 03:08:26;;;;;;;6.50;5.47;;;;;;;9.55;100.00;99165.88;4191309;27;20047;-72
2022/06/10 03:10:44;;;;;;;9.02;5.80;;;;;;;9.60;100.00;99175.03;4185166;28;20036;-72
2022/06/10 03:13:46;;;;;;;7.82;5.90;;;;;;;9.55;100.00;99174.16;4191470;28;20060;-72
2022/06/10 03:16:08;;;;;;;7.53;5.75;;;;;;;9.53;100.00;99183.97;4150822;28;20073;-71
2022/06/10 03:18:22;;;;;;;7.93;5.53;;;;;;;9.52;100.00;99174.06;4153119;28;20079;-72
2022/06/10 03:20:38;;;;;;;6.72;5.32;;;;;;;9.56;100.00;99189.56;4161155;28;20083;-72
2022/06/10 03:22:57;;;;;;;7.20;5.47;;;;;;;9.63;100.00;99180.66;4186384;28;20052;-72
2022/06/10 03:25:24;;;;;;;7.50;5.53;;;;;;;9.65;100.00;99189.41;4187234;28;20052;-72
2022/06/10 03:27:40;;;;;;;7.38;5.32;;;;;;;9.68;100.00;99185.94;4189406;28;20049;-71
2022/06/10 03:29:52;;;;;;;8.75;5.80;;;;;;;9.70;100.00;99185.59;4186342;28;20044;-71
2022/06/10 03:32:13;;;;;;;9.23;5.40;;;;;;;9.78;100.00;99190.94;4187284;28;20591;-72
2022/06/10 03:34:22;;;;;;;8.15;4.35;;;;;;;9.91;99.13;99190.84;4185377;28;20611;-72
2022/06/10 03:36:26;;;;;;;7.78;4.78;;;;;;;9.97;97.75;99189.44;4188616;28;20118;-72
2022/06/10 03:38:30;;;;;;;7.20;4.90;;;;;;;9.95;96.22;99183.47;4186159;28;20044;-72
2022/06/10 03:40:32;;;;;;;8.05;4.70;;;;;;;9.87;96.30;99189.97;4186896;28;20157;-72
2022/06/10 03:42:33;;;;;;;6.90;5.57;;;;;;;9.80;96.32;99196.91;4187526;27;20052;-72
2022/06/10 03:44:33;;;;;;;6.72;4.95;;;;;;;9.75;96.63;99201.88;4186965;28;20044;-72
2022/06/10 03:46:34;;;;;;;7.60;5.10;;;;;;;9.79;96.33;99200.03;4186904;28;20051;-72
2022/06/10 03:48:37;;;;;;;8.52;4.78;;;;;;;9.79;96.06;99208.31;4191806;28;20048;-72
2022/06/10 03:50:39;;;;;;;7.05;4.75;;;;;;;9.81;95.65;99206.81;4187008;28;20074;-72
2022/06/10 03:52:41;;;;;;;7.33;4.67;;;;;;;9.77;95.52;99219.75;4185296;27;20351;-72
2022/06/10 03:54:41;;;;;;;6.28;4.80;;;;;;;9.72;96.06;99222.75;4187094;28;20036;-72
2022/06/10 03:56:42;;;;;;;7.38;5.57;;;;;;;9.62;97.79;99219.72;4189793;27;20032;-72
2022/06/10 03:58:42;;;;;;;8.60;5.20;;;;;;;9.54;99.36;99215.94;4185980;28;20048;-72
2022/06/10 04:00:43;;;;;;;5.78;4.80;;;;;;;9.50;100.00;99224.13;4185996;28;20044;-72
2022/06/10 04:02:43;;;;;;;8.82;4.88;;;;;;;9.48;100.00;99226.44;4189273;27;20131;-72
2022/06/10 04:04:45;;;;;;;10.25;5.35;;;;;;;9.52;100.00;99229.31;4185889;28;20096;-72
2022/06/10 04:06:45;;;;;;;7.65;4.97;;;;;;;9.57;99.69;99223.53;4186864;28;20045;-72
2022/06/10 04:08:46;;;;;;;8.45;5.28;;;;;;;9.64;99.85;99229.25;4186103;28;20040;-72
2022/06/10 04:10:46;;;;;;;6.80;5.28;;;;;;;9.70;99.44;99229.81;4185536;28;20376;-72
2022/06/10 04:12:47;;;;;;;7.72;5.28;;;;;;;9.73;100.00;99223.56;4180848;28;20048;-72
2022/06/10 04:14:47;;;;;;;8.70;5.47;;;;;;;9.79;100.00;99233.19;4183419;27;20044;-72
2022/06/10 04:16:48;;;;;;;7.32;4.85;;;;;;;9.90;97.69;99239.81;4189618;27;20442;-72
2022/06/10 04:18:48;;;;;;;5.32;4.82;;;;;;;9.99;96.88;99234.91;4184548;28;20449;-72
2022/06/10 04:20:48;;;;;;;6.53;4.95;;;;;;;10.12;95.38;99238.41;4177195;28;20376;-72
2022/06/10 04:22:49;;;;;;;6.57;4.15;;;;;;;10.19;94.59;99227.53;4177693;28;20529;-72
2022/06/10 04:24:49;;;;;;;7.10;4.55;;;;;;;10.24;94.89;99241.09;4176618;28;20110;-72
2022/06/10 04:26:50;;;;;;;7.88;4.85;;;;;;;10.22;94.78;99234.28;4185126;28;20052;-72
2022/06/10 04:28:50;;;;;;;6.32;4.68;;;;;;;10.27;93.95;99245.13;4188202;28;20121;-71
2022/06/10 04:30:51;;;;;;;6.85;4.85;;;;;;;10.24;94.08;99237.53;4186136;28;20119;-72
2022/06/10 04:32:53;;;;;;;5.43;4.65;;;;;;;10.27;93.21;99247.91;4186269;28;20819;-72
2022/06/10 04:34:53;;;;;;;5.75;5.05;;;;;;;10.31;93.08;99248.78;4186038;28;20106;-72
2022/06/10 04:36:54;;;;;;;7.15;5.20;;;;;;;10.36;93.29;99251.28;4192527;27;20057;-72
2022/06/10 04:38:54;;;;;;;6.05;4.82;;;;;;;10.42;92.62;99249.81;4189016;27;20036;-72
2022/06/10 04:40:54;;;;;;;8.00;4.97;;;;;;;10.48;92.91;99242.88;4188942;28;20123;-72
2022/06/10 04:42:55;;;;;;;7.68;4.85;;;;;;;10.55;91.93;99247.78;4185857;28;20627;-72
2022/06/10 04:44:57;;;;;;;7.50;5.10;;;;;;;10.65;91.73;99248.00;4186264;28;20052;-72
2022/06/10 04:46:57;;;;;;;8.25;5.53;;;;;;;10.74;92.56;99252.56;4186461;28;20117;-72
2022/06/10 04:48:59;;;;;;;7.05;4.93;;;;;;;10.80;93.28;99253.88;4184776;28;20480;-72
2022/06/10 04:50:59;;;;;;;6.28;4.78;;;;;;;10.88;92.90;99266.72;4185780;28;20056;-72
2022/06/10 04:53:00;;;;;;;7.18;5.15;;;;;;;10.93;91.73;99256.19;4186059;28;20041;-72
2022/06/10 04:55:01;;;;;;;7.07;4.85;;;;;;;11.08;90.50;99267.56;4187708;28;20542;-72
2022/06/10 04:57:01;;;;;;;6.45;4.97;;;;;;;11.16;90.26;99278.44;4143207;28;20123;-72
2022/06/10 04:59:01;;;;;;;5.95;4.78;;;;;;;11.27;91.67;99270.38;4189373;28;20071;-72
2022/06/10 05:01:02;;;;;;;6.45;4.85;;;;;;;11.32;91.45;99277.56;4194236;27;20037;-72
2022/06/10 05:03:03;;;;;;;7.70;5.40;;;;;;;11.37;92.07;99269.78;4187774;28;20147;-72
2022/06/10 05:05:04;;;;;;;8.50;5.00;;;;;;;11.45;90.00;99271.53;4187138;28;20439;-72
2022/06/10 05:07:04;;;;;;;9.52;6.00;;;;;;;11.53;93.47;99278.03;4186275;28;20036;-72
2022/06/10 05:09:05;;;;;;;8.45;5.45;;;;;;;11.56;91.55;99274.50;4184942;28;20044;-72
2022/06/10 05:11:07;;;;;;;6.20;4.45;;;;;;;11.65;90.85;99280.63;4192053;27;20045;-72
2022/06/10 05:13:07;;;;;;;7.53;5.37;;;;;;;11.76;92.62;99280.88;4188395;28;20041;-72
2022/06/10 05:15:08;;;;;;;6.22;5.22;;;;;;;11.83;93.70;99278.25;4189675;28;20037;-72
2022/06/10 05:17:08;;;;;;;12.55;5.85;;;;;;;11.93;93.30;99279.63;4185351;28;20128;-72
2022/06/10 05:19:08;;;;;;;7.43;6.18;;;;;;;12.01;93.11;99273.84;4187399;28;20055;-72
2022/06/10 05:21:10;;;;;;;9.05;6.40;;;;;;;12.10;93.70;99276.38;4194997;27;20093;-72
2022/06/10 05:23:14;;;;;;;8.98;6.57;;;;;;;12.19;92.79;99276.94;4185458;28;20053;-72
2022/06/10 05:25:14;;;;;;;9.32;6.25;;;;;;;12.25;91.92;99278.25;4191753;27;20029;-72
2022/06/10 05:27:15;;;;;;;6.93;5.72;;;;;;;12.31;93.15;99281.50;4186208;28;20183;-72
2022/06/10 05:29:15;;;;;;;6.75;5.38;;;;;;;12.40;92.03;99284.81;4185012;28;20480;-72
2022/06/10 05:31:15;;;;;;;8.27;6.38;;;;;;;12.49;92.12;99282.59;4186216;28;20088;-72
2022/06/10 05:33:16;;;;;;;10.13;7.07;;;;;;;12.59;91.59;99278.41;4185146;28;20094;-72
2022/06/10 05:35:17;;;;;;;6.07;5.40;;;;;;;12.65;90.20;99290.78;4184491;28;20055;-72
2022/06/10 05:37:23;;;;;;;9.48;6.13;;;;;;;12.78;91.72;99294.97;4184738;28;20356;-72
2022/06/10 05:39:24;;;;;;;7.38;5.97;;;;;;;12.88;90.68;99296.31;4189712;28;20052;-72
2022/06/10 05:43:43;;;;;;;8.00;4.97;;;;;;;13.09;84.97;99293.84;4185938;28;20071;-72
2022/06/10 05:45:43;;;;;;;6.47;5.47;;;;;;;13.16;87.04;99287.59;4188334;27;20637;-72
2022/06/10 05:47:46;;;;;;;9.23;5.97;;;;;;;13.24;89.23;99291.28;4183708;28;20048;-72
2022/06/10 05:49:50;;;;;;;6.53;5.78;;;;;;;13.32;90.29;99296.59;4184683;28;20060;-72
2022/06/10 05:51:51;;;;;;;6.75;5.65;;;;;;;13.38;88.66;99285.94;4185466;28;20040;-72
2022/06/10 05:53:51;;;;;;;6.97;6.20;;;;;;;13.47;89.90;99295.56;4185752;28;20040;-72
2022/06/10 05:55:51;;;;;;;8.68;6.10;;;;;;;13.50;88.48;99288.47;4191842;28;20256;-72
2022/06/10 05:57:52;;;;;;;11.25;5.80;;;;;;;13.52;88.81;99288.91;4187733;28;20480;-72
2022/06/10 05:59:52;;;;;;;8.27;6.18;;;;;;;13.55;88.70;99293.69;4188048;28;20048;-72
2022/06/10 06:01:53;;;;;;;6.88;6.05;;;;;;;13.63;88.78;99302.91;4188171;28;20040;-72
2022/06/10 06:03:53;;;;;;;8.10;6.10;;;;;;;13.69;89.03;99302.22;4188402;28;20068;-72
2022/06/10 06:05:54;;;;;;;8.55;6.00;;;;;;;13.75;88.48;99297.94;4188277;28;20135;-72
2022/06/10 06:07:54;;;;;;;7.93;6.47;;;;;;;13.84;88.13;99307.94;4188506;28;20064;-72
2022/06/10 06:09:55;;;;;;;6.75;5.40;;;;;;;13.92;87.26;99307.66;4187484;28;20044;-72
2022/06/10 06:11:57;;;;;;;7.47;5.63;;;;;;;13.98;87.07;99299.75;4188208;28;20052;-72
2022/06/10 06:13:58;;;;;;;7.07;6.10;;;;;;;14.06;86.21;99301.44;4188552;28;20485;-72
2022/06/10 06:15:58;;;;;;;14.55;7.85;;;;;;;14.13;87.96;99307.06;4191835;28;20556;-72
2022/06/10 06:17:59;;;;;;;10.75;7.95;;;;;;;14.21;86.33;99302.38;4188152;28;20048;-72
2022/06/10 06:19:59;;;;;;;10.75;7.70;;;;;;;14.30;86.41;99300.06;4190401;28;20040;-72
2022/06/10 06:21:59;;;;;;;7.35;5.32;;;;;;;14.38;84.77;99307.31;4188621;28;20532;-72
2022/06/10 06:24:00;;;;;;;10.43;6.38;;;;;;;14.49;85.59;99301.91;4193574;28;20040;-72
2022/06/10 06:26:00;;;;;;;11.15;6.47;;;;;;;14.54;83.75;99307.09;4192503;28;20059;-72
2022/06/10 06:28:00;;;;;;;10.77;6.68;;;;;;;14.64;82.04;99297.22;4191846;27;20131;-72
2022/06/10 06:30:01;;;;;;;6.80;5.50;;;;;;;14.72;80.16;99301.66;4188741;28;20033;-72
2022/06/10 06:32:02;;;;;;;6.97;6.28;;;;;;;14.78;82.41;99298.16;4192669;28;20072;-72
2022/06/10 06:34:02;;;;;;;9.98;7.25;;;;;;;14.83;81.39;99303.38;4187771;28;20365;-72
2022/06/10 06:36:04;;;;;;;10.07;7.22;;;;;;;14.92;82.76;99302.25;4194625;28;20038;-72
2022/06/10 06:38:06;;;;;;;7.72;6.03;;;;;;;14.99;82.59;99299.50;4187935;28;20058;-72
2022/06/10 06:40:07;;;;;;;8.82;6.20;;;;;;;15.04;81.95;99307.47;4190124;28;20028;-72
2022/06/10 06:42:09;;;;;;;9.85;7.45;;;;;;;15.14;82.76;99303.97;4188079;28;20063;-72
2022/06/10 06:44:10;;;;;;;8.32;6.53;;;;;;;15.20;82.30;99307.97;4193650;28;20490;-73
2022/06/10 06:46:16;;;;;;;9.07;7.05;;;;;;;15.24;82.63;99308.81;4187741;28;20040;-72
2022/06/10 06:48:16;;;;;;;8.43;6.35;;;;;;;15.29;81.87;99307.63;4187173;28;20037;-72
2022/06/10 06:50:23;;;;;;;9.80;7.57;;;;;;;15.35;81.79;99312.47;4192444;28;20502;-72
2022/06/10 06:52:24;;;;;;;12.35;8.52;;;;;;;15.43;82.38;99304.94;4187302;28;20124;-72
2022/06/10 06:54:24;;;;;;;8.18;6.35;;;;;;;15.51;81.83;99306.56;4187789;28;20043;-72
2022/06/10 06:56:26;;;;;;;18.65;7.35;;;;;;;15.59;79.58;99302.63;4192522;28;20446;-72
2022/06/10 06:58:27;;;;;;;9.00;7.68;;;;;;;15.63;79.97;99308.22;4192354;28;20139;-72
2022/06/10 07:00:28;;;;;;;8.48;7.05;;;;;;;15.69;80.53;99298.31;4187527;28;20083;-72
2022/06/10 07:02:28;;;;;;;9.95;6.97;;;;;;;15.77;78.55;99301.94;4193982;27;20040;-72
2022/06/10 07:04:28;;;;;;;8.27;7.45;;;;;;;15.81;79.98;99302.75;4187576;28;20455;-72
2022/06/10 07:06:28;;;;;;;11.40;6.80;;;;;;;15.87;78.93;99307.53;4187370;28;20032;-72
2022/06/10 07:08:32;;;;;;;8.93;7.03;;;;;;;15.92;78.06;99309.16;4185774;28;20049;-73
2022/06/10 07:10:32;;;;;;;10.07;6.75;;;;;;;15.94;77.30;99315.13;4187433;28;20048;-72
2022/06/10 07:12:33;;;;;;;9.07;7.05;;;;;;;15.98;78.78;99310.38;4187285;28;20209;-72
2022/06/10 07:14:33;;;;;;;9.07;6.93;;;;;;;16.06;79.77;99316.78;4187296;28;20536;-72
2022/06/10 07:16:34;;;;;;;9.60;5.93;;;;;;;16.12;78.78;99313.19;4194484;28;20045;-72
2022/06/10 07:18:34;;;;;;;10.70;6.32;;;;;;;16.20;77.46;99314.00;4191678;28;20476;-73
2022/06/10 07:20:36;;;;;;;10.85;7.43;;;;;;;16.24;75.98;99326.78;4187216;28;20425;-73
2022/06/10 07:22:36;;;;;;;13.13;7.00;;;;;;;16.32;76.97;99321.22;4193658;27;20131;-72
2022/06/10 07:24:37;;;;;;;8.73;5.80;;;;;;;16.38;77.00;99320.41;4190943;28;20420;-73
2022/06/10 07:26:38;;;;;;;7.32;5.68;;;;;;;16.48;76.53;99321.66;4191265;27;20542;-72
2022/06/10 07:28:39;;;;;;;9.68;5.95;;;;;;;16.51;74.91;99306.88;4186269;28;20171;-72
2022/06/10 07:30:41;;;;;;;9.55;6.22;;;;;;;16.56;74.63;99312.09;4186554;28;20083;-72
2022/06/10 07:32:42;;;;;;;11.70;6.40;;;;;;;16.62;74.74;99310.47;4187233;28;20396;-73
2022/06/10 07:34:43;;;;;;;8.02;6.03;;;;;;;16.70;73.90;99308.50;4186634;28;20045;-73
2022/06/10 07:36:43;;;;;;;9.77;6.35;;;;;;;16.76;73.59;99312.50;4197235;27;20037;-73
2022/06/10 07:38:43;;;;;;;8.45;5.57;;;;;;;16.88;74.23;99314.09;4186125;28;20142;-72
2022/06/10 07:43:04;;;;;;;9.38;5.82;;;;;;;17.05;72.90;99300.13;4186922;28;20467;-72
2022/06/10 07:45:05;;;;;;;10.55;6.15;;;;;;;17.08;71.72;99306.91;4186291;28;20045;-72
2022/06/10 07:47:11;;;;;;;10.23;5.95;;;;;;;17.17;73.33;99304.47;4192553;27;20310;-72
2022/06/10 07:49:12;;;;;;;9.70;6.97;;;;;;;17.22;70.43;99298.50;4185059;28;20054;-72
2022/06/10 07:51:12;;;;;;;8.63;5.85;;;;;;;17.29;70.09;99306.84;4189950;28;20442;-73
2022/06/10 07:53:14;;;;;;;11.13;5.88;;;;;;;17.32;69.99;99300.47;4187348;28;20506;-73
2022/06/10 07:55:14;;;;;;;9.98;6.00;;;;;;;17.37;72.23;99302.81;4186730;28;20040;-73
2022/06/10 07:57:14;;;;;;;9.75;5.57;;;;;;;17.48;71.30;99300.00;4186284;28;20349;-73
2022/06/10 07:59:15;;;;;;;10.90;6.78;;;;;;;17.55;68.16;99302.78;4191610;28;20123;-73
2022/06/10 08:01:16;;;;;;;7.45;5.88;;;;;;;17.54;67.12;99308.78;4186641;28;20100;-73
2022/06/10 08:03:17;;;;;;;9.40;5.78;;;;;;;17.52;68.13;99302.78;4186677;28;20044;-73
2022/06/10 08:05:17;;;;;;;16.95;6.32;;;;;;;17.52;67.49;99300.00;4186628;28;20411;-73
2022/06/10 08:07:18;;;;;;;9.40;5.95;;;;;;;17.60;66.94;99312.75;4192049;28;20043;-73
2022/06/10 08:09:21;;;;;;;7.88;6.40;;;;;;;17.62;67.59;99301.94;4185634;28;20956;-73
2022/06/10 08:11:21;;;;;;;8.18;5.28;;;;;;;17.69;66.81;99296.31;4185940;28;20049;-73
2022/06/10 08:13:22;;;;;;;8.82;5.45;;;;;;;17.77;66.52;99292.31;4186362;28;20037;-73
2022/06/10 08:15:24;;;;;;;7.18;4.43;;;;;;;17.90;66.37;99287.06;4186133;28;20043;-73
2022/06/10 08:17:25;;;;;;;6.75;4.18;;;;;;;18.11;64.78;99294.53;4186296;28;20052;-73
2022/06/10 08:19:25;;;;;;;7.95;4.10;;;;;;;18.20;63.59;99281.72;4192433;27;20421;-73
2022/06/10 08:23:45;;;;;;;10.35;4.55;;;;;;;18.34;63.82;99271.59;4186095;28;20047;-73
2022/06/10 08:25:45;;;;;;;6.63;3.45;;;;;;;18.34;60.88;99278.00;4192412;28;20041;-73
2022/06/10 08:27:49;;;;;;;5.55;3.20;;;;;;;18.44;61.85;99279.13;4186244;28;20037;-73
2022/06/10 08:29:49;;;;;;;3.22;2.90;;;;;;;18.51;60.82;99279.06;4189082;28;20040;-73
2022/06/10 08:31:50;;;;;;;4.38;3.25;;;;;;;18.62;59.18;99273.38;4186198;28;20393;-73
2022/06/10 08:33:50;;;;;;;7.35;4.28;;;;;;;18.58;57.71;99284.63;4186132;28;20450;-73
2022/06/10 08:35:50;;;;;;;5.68;3.20;;;;;;;18.57;59.19;99287.84;4191934;28;20040;-73
2022/06/10 08:37:51;;;;;;;6.18;3.22;;;;;;;18.63;58.16;99281.41;4186196;28;20392;-73
2022/06/10 08:39:51;;;;;;;5.07;3.60;;;;;;;18.68;59.90;99280.16;4185667;28;20496;-73
2022/06/10 08:41:51;;;;;;;5.25;3.22;;;;;;;18.76;60.25;99281.69;4185884;28;20786;-73
2022/06/10 08:44:04;;;;;;;6.30;3.20;;;;;;;18.87;60.05;99278.81;4192149;27;20064;-73
2022/06/10 08:46:46;;;;;;;5.45;3.55;;;;;;;18.93;60.63;99272.34;4186251;28;20059;-73
2022/06/10 08:49:24;;;;;;;4.90;3.30;;;;;;;18.97;59.88;99273.09;4185360;28;20048;-73
2022/06/10 08:51:40;;;;;;;4.72;3.50;;;;;;;19.11;57.19;99280.56;4186422;28;20063;-73
2022/06/10 08:54:08;;;;;;;4.35;2.97;;;;;;;19.29;58.26;99278.38;4187139;28;20480;-73
2022/06/10 08:56:27;;;;;;;3.50;2.60;;;;;;;19.52;55.65;99282.53;4186121;28;20064;-73
2022/06/10 08:58:35;;;;;;;3.45;3.00;;;;;;;19.40;55.50;99277.47;4185603;28;20040;-73
2022/06/10 09:00:40;;;;;;;6.40;3.05;;;;;;;19.23;55.72;99287.69;4185536;28;20544;-73
2022/06/10 09:02:54;;;;;;;6.10;3.05;;;;;;;19.11;55.04;99280.56;4186689;28;20062;-73
2022/06/10 09:05:05;;;;;;;5.63;3.28;;;;;;;18.97;54.90;99291.94;4185771;28;20033;-73
2022/06/10 09:07:12;;;;;;;3.97;2.80;;;;;;;18.89;55.84;99290.41;4192297;28;20124;-73
2022/06/10 09:09:14;;;;;;;7.40;2.97;;;;;;;19.05;56.51;99276.63;4190861;28;20042;-73
2022/06/10 09:11:47;;;;;;;5.55;3.10;;;;;;;19.32;56.14;99274.75;4192252;27;20032;-73
2022/06/10 09:13:54;;;;;;;5.50;3.33;;;;;;;19.43;54.80;99283.03;4185879;28;20490;-73
2022/06/10 09:16:40;;;;;;;4.72;3.47;;;;;;;19.28;54.35;99276.81;4186406;28;20303;-73
2022/06/10 09:19:09;;;;;;;4.75;3.22;;;;;;;19.46;53.89;99278.59;4173534;28;20419;-73
2022/06/10 09:21:42;;;;;;;5.43;2.67;;;;;;;19.52;54.32;99274.09;4168587;28;20048;-73
2022/06/10 09:23:45;;;;;;;4.75;2.85;;;;;;;19.53;54.74;99272.91;4178243;28;20048;-73
2022/06/10 09:25:48;;;;;;;3.63;2.88;;;;;;;19.52;54.33;99271.28;4188654;27;20403;-73
2022/06/10 09:27:53;;;;;;;5.82;2.45;;;;;;;19.58;54.89;99264.03;4185837;28;20064;-73
2022/06/10 09:29:57;;;;;;;5.20;3.53;;;;;;;19.64;55.01;99271.59;4184814;28;20388;-73
2022/06/10 09:32:04;;;;;;;5.78;2.67;;;;;;;19.85;53.45;99269.72;4187121;28;20386;-73
2022/06/10 09:34:19;;;;;;;4.50;2.33;;;;;;;19.81;53.58;99272.56;4195766;28;20360;-73
2022/06/10 09:36:47;;;;;;;5.57;3.45;;;;;;;19.87;53.39;99278.53;4188494;28;20075;-73
2022/06/10 09:39:00;;;;;;;3.78;2.42;;;;;;;19.83;52.87;99289.00;4193340;27;20055;-73
2022/06/10 09:41:26;;;;;;;6.20;2.45;;;;;;;19.90;53.89;99286.88;4188706;28;20226;-73
2022/06/10 09:43:45;;;;;;;3.92;2.25;;;;;;;19.84;54.73;99291.38;4201112;27;20044;-73
2022/06/10 09:46:03;;;;;;;4.97;2.78;;;;;;;20.00;53.25;99281.56;4188423;28;20044;-73
2022/06/10 09:48:22;;;;;;;5.60;2.60;;;;;;;20.22;53.32;99293.28;4188303;28;20385;-73
2022/06/10 09:50:39;;;;;;;7.47;3.63;;;;;;;19.89;54.96;99290.13;4188211;28;20059;-73
2022/06/10 09:53:07;;;;;;;5.25;3.15;;;;;;;19.39;55.23;99287.91;4188618;28;20056;-73
2022/06/10 09:55:28;;;;;;;5.15;3.08;;;;;;;19.19;56.44;99289.69;4188157;28;20057;-73
2022/06/10 09:57:28;;;;;;;5.00;2.83;;;;;;;19.13;56.20;99294.19;4188608;28;20041;-73
2022/06/10 10:00:03;;;;;;;5.57;2.67;;;;;;;19.04;56.51;99289.06;4187767;28;20036;-73
2022/06/10 10:02:03;;;;;;;5.18;3.78;;;;;;;19.02;56.73;99292.28;4187267;28;20794;-73